Time;durP1;ratioP1;P1;durP2;ratioP2;P2;SDS_P1;SDS_P2;PMS_P1;PMS_P2;Temp;Humidity;BMP_temperature;BMP_pressure;BME280_temperature;BME280_humidity;BME280_pressure;Samples;Min_cycle;Max_cycle;Signal;HPM_P1;HPM_P2
2023/07/12 00:01:20;;;;;;;7.03;2.20;;;;;;;19.71;100.00;100662.69;5010098;28;20128;-57
2023/07/12 00:03:49;;;;;;;3.88;1.80;;;;;;;19.74;100.00;100657.06;5008656;28;20046;-55
2023/07/12 00:06:20;;;;;;;4.45;1.90;;;;;;;19.80;100.00;100654.72;5010795;28;20069;-55
2023/07/12 00:08:48;;;;;;;4.65;1.70;;;;;;;19.71;100.00;100649.34;5009473;28;20133;-55
2023/07/12 00:11:19;;;;;;;4.40;1.80;;;;;;;19.71;100.00;100641.34;5010798;28;20370;-56
2023/07/12 00:13:48;;;;;;;5.13;2.08;;;;;;;19.63;100.00;100641.34;5009718;28;20112;-56
2023/07/12 00:16:23;;;;;;;4.63;1.92;;;;;;;19.36;100.00;100637.97;5009889;28;20520;-57
2023/07/12 00:18:52;;;;;;;5.68;1.80;;;;;;;19.54;100.00;100650.34;5009609;28;20049;-57
2023/07/12 00:21:23;;;;;;;5.35;1.92;;;;;;;19.50;100.00;100649.84;5010342;28;20551;-55
2023/07/12 00:23:52;;;;;;;6.32;1.90;;;;;;;19.32;100.00;100655.28;5009629;28;20068;-55
2023/07/12 00:26:24;;;;;;;6.40;1.80;;;;;;;19.39;100.00;100653.63;5008815;28;20074;-56
2023/07/12 00:28:52;;;;;;;5.40;2.10;;;;;;;19.49;100.00;100650.81;5009444;28;20061;-56
2023/07/12 00:31:20;;;;;;;5.95;2.30;;;;;;;19.45;100.00;100664.66;5009419;28;20058;-56
2023/07/12 00:33:49;;;;;;;6.57;1.90;;;;;;;19.36;100.00;100659.31;5009613;28;20050;-55
2023/07/12 00:36:21;;;;;;;3.13;1.70;;;;;;;19.42;100.00;100649.81;5010207;28;20042;-58
2023/07/12 00:38:50;;;;;;;6.78;2.13;;;;;;;19.35;100.00;100657.63;5009869;28;20050;-58
2023/07/12 00:41:30;;;;;;;6.43;1.80;;;;;;;19.40;100.00;100663.31;5010206;28;20046;-58
2023/07/12 00:44:05;;;;;;;5.07;2.00;;;;;;;19.31;100.00;100676.78;5009485;28;20046;-58
2023/07/12 00:46:37;;;;;;;6.38;2.03;;;;;;;19.25;100.00;100678.22;5009503;28;20104;-58
2023/07/12 00:49:05;;;;;;;7.03;2.50;;;;;;;19.21;100.00;100680.41;5008765;28;20144;-58
2023/07/12 00:51:44;;;;;;;5.43;2.03;;;;;;;19.09;100.00;100684.34;5010155;28;20056;-58
2023/07/12 00:54:14;;;;;;;4.95;2.38;;;;;;;18.98;100.00;100679.28;5009535;28;20389;-58
2023/07/12 00:56:44;;;;;;;5.90;2.10;;;;;;;18.99;100.00;100681.81;5009344;28;20034;-58
2023/07/12 00:59:18;;;;;;;5.15;2.35;;;;;;;19.02;100.00;100685.97;5009484;28;20108;-58
2023/07/12 01:01:49;;;;;;;6.85;2.97;;;;;;;19.02;100.00;100691.28;5008975;28;20128;-58
2023/07/12 01:04:22;;;;;;;7.72;2.50;;;;;;;18.97;100.00;100686.44;5009458;28;20050;-57
2023/07/12 01:06:50;;;;;;;5.22;2.38;;;;;;;18.95;100.00;100680.47;5009285;28;20046;-58
2023/07/12 01:09:19;;;;;;;6.18;2.58;;;;;;;18.99;100.00;100688.94;5009364;28;20453;-55
2023/07/12 01:11:49;;;;;;;7.18;2.35;;;;;;;18.84;100.00;100713.50;5009260;28;20121;-56
2023/07/12 01:14:18;;;;;;;8.70;2.72;;;;;;;18.72;100.00;100718.25;5009108;28;20057;-55
2023/07/12 01:16:51;;;;;;;6.57;2.78;;;;;;;18.64;100.00;100717.34;5008505;28;20053;-56
2023/07/12 01:19:19;;;;;;;6.95;2.30;;;;;;;18.56;100.00;100721.63;5008745;28;20096;-56
2023/07/12 01:21:52;;;;;;;5.90;2.45;;;;;;;18.55;100.00;100725.28;5008780;28;20050;-57
2023/07/12 01:24:20;;;;;;;;;;;;;;;18.44;100.00;100724.72;5009377;28;20041;-56
2023/07/12 01:26:51;;;;;;;8.80;2.53;;;;;;;18.27;100.00;100729.03;5009190;28;19964;-56
2023/07/12 01:29:19;;;;;;;8.77;2.80;;;;;;;18.19;100.00;100738.63;5008616;28;20132;-56
2023/07/12 01:31:49;;;;;;;9.95;2.70;;;;;;;18.21;100.00;100739.31;5008257;28;20046;-56
2023/07/12 01:34:17;;;;;;;11.05;2.95;;;;;;;18.20;100.00;100747.44;5008640;28;20050;-55
2023/07/12 01:36:47;;;;;;;8.73;2.72;;;;;;;18.12;100.00;100750.88;5008856;28;20054;-55
2023/07/12 01:39:16;;;;;;;6.75;2.60;;;;;;;18.23;100.00;100744.50;5008548;28;20157;-56
2023/07/12 01:41:44;;;;;;;7.53;2.88;;;;;;;18.07;100.00;100750.50;5008738;28;20037;-57
2023/07/12 01:44:12;;;;;;;7.80;2.75;;;;;;;18.01;100.00;100724.47;5009091;28;20050;-56
2023/07/12 01:46:43;;;;;;;10.63;2.97;;;;;;;17.82;100.00;100710.31;5008230;28;20095;-58
2023/07/12 01:49:11;;;;;;;7.47;2.83;;;;;;;17.79;100.00;100747.81;5012740;28;20057;-58
2023/07/12 01:51:43;;;;;;;9.93;2.95;;;;;;;17.88;100.00;100770.06;5012568;28;20067;-58
2023/07/12 01:54:15;;;;;;;10.52;2.92;;;;;;;17.89;100.00;100745.13;5011923;28;20060;-59
2023/07/12 01:56:43;;;;;;;9.43;3.15;;;;;;;17.87;100.00;100709.84;5008248;28;20056;-58
2023/07/12 01:59:12;;;;;;;9.38;2.83;;;;;;;17.86;100.00;100709.03;5008703;28;20050;-55
2023/07/12 02:01:40;;;;;;;10.02;2.70;;;;;;;17.90;100.00;100698.91;5010782;28;20080;-55
2023/07/12 02:04:11;;;;;;;10.98;2.90;;;;;;;17.90;100.00;100678.47;5008353;28;20061;-58
2023/07/12 02:06:39;;;;;;;9.82;2.97;;;;;;;17.93;100.00;100688.00;5008824;28;20046;-58
2023/07/12 02:09:08;;;;;;;13.10;2.72;;;;;;;17.95;100.00;100675.38;5006812;28;20084;-55
2023/07/12 02:11:37;;;;;;;8.52;2.70;;;;;;;17.96;100.00;100685.03;5016710;28;20045;-54
2023/07/12 02:14:05;;;;;;;10.68;2.95;;;;;;;17.97;100.00;100672.56;5026249;28;20500;-55
2023/07/12 02:16:34;;;;;;;10.63;2.83;;;;;;;17.88;100.00;100679.59;5019469;28;20042;-55
2023/07/12 02:19:04;;;;;;;9.57;3.05;;;;;;;17.95;100.00;100680.69;5007769;28;20405;-55
2023/07/12 02:21:32;;;;;;;10.10;2.90;;;;;;;17.88;100.00;100675.13;5012582;28;20445;-55
2023/07/12 02:24:00;;;;;;;9.95;3.20;;;;;;;17.81;100.00;100674.06;5014102;28;20056;-56
2023/07/12 02:26:29;;;;;;;8.95;3.22;;;;;;;17.73;100.00;100677.47;5019840;28;20046;-55
2023/07/12 02:29:01;;;;;;;14.05;3.08;;;;;;;17.66;100.00;100681.72;5033610;28;20057;-55
2023/07/12 02:31:31;;;;;;;9.15;2.78;;;;;;;17.67;100.00;100670.09;5008201;28;20068;-55
2023/07/12 02:34:00;;;;;;;10.82;3.20;;;;;;;17.74;100.00;100657.88;5033189;28;20049;-53
2023/07/12 02:36:28;;;;;;;7.00;3.17;;;;;;;17.76;100.00;100643.59;5033929;28;20068;-55
2023/07/12 02:38:56;;;;;;;10.18;2.83;;;;;;;17.73;100.00;100647.38;5033320;28;20401;-55
2023/07/12 02:41:24;;;;;;;11.10;2.92;;;;;;;17.70;100.00;100717.66;5030648;28;20559;-57
2023/07/12 02:43:52;;;;;;;9.93;2.83;;;;;;;17.70;100.00;100728.28;5014866;28;20485;-56
2023/07/12 02:46:22;;;;;;;13.00;2.67;;;;;;;17.64;100.00;100723.59;5015344;28;20525;-56
2023/07/12 02:48:50;;;;;;;10.43;2.60;;;;;;;17.46;100.00;100736.00;5033679;28;20103;-56
2023/07/12 02:51:18;;;;;;;8.93;2.70;;;;;;;17.43;100.00;100728.31;5033004;28;20059;-56
2023/07/12 02:53:46;;;;;;;10.25;2.70;;;;;;;17.31;100.00;100733.81;5014538;28;20124;-56
2023/07/12 02:56:15;;;;;;;9.45;2.58;;;;;;;17.32;100.00;100740.81;5014632;28;20081;-56
2023/07/12 02:58:43;;;;;;;7.60;2.42;;;;;;;17.38;100.00;100732.25;5014939;28;20069;-56
2023/07/12 03:01:11;;;;;;;5.75;2.40;;;;;;;17.38;100.00;100699.50;5014616;28;20069;-56
2023/07/12 03:03:41;;;;;;;6.43;2.15;;;;;;;17.45;100.00;100697.09;5030867;28;20041;-55
2023/07/12 03:06:12;;;;;;;8.05;2.38;;;;;;;17.33;100.00;100662.75;5034339;28;20443;-55
2023/07/12 03:08:40;;;;;;;9.23;1.75;;;;;;;17.44;100.00;100663.53;5032507;28;20081;-55
2023/07/12 03:11:09;;;;;;;7.38;2.33;;;;;;;17.49;100.00;100686.03;5032582;28;20063;-58
2023/07/12 03:13:38;;;;;;;6.18;2.45;;;;;;;17.49;100.00;100679.88;5027971;28;20483;-55
2023/07/12 03:16:07;;;;;;;7.63;2.00;;;;;;;17.45;100.00;100681.16;5033301;28;20111;-55
2023/07/12 03:18:38;;;;;;;6.35;1.95;;;;;;;17.44;100.00;100669.69;5029632;28;20083;-54
2023/07/12 03:21:08;;;;;;;8.50;2.45;;;;;;;17.44;100.00;100672.34;5015289;28;20497;-54
2023/07/12 03:23:37;;;;;;;6.80;2.28;;;;;;;17.48;100.00;100684.34;5013796;28;20081;-58
2023/07/12 03:26:05;;;;;;;5.55;2.20;;;;;;;17.45;100.00;100689.97;5014622;28;20204;-53
2023/07/12 03:28:33;;;;;;;6.57;2.00;;;;;;;17.42;100.00;100703.53;5013794;28;20158;-55
2023/07/12 03:31:03;;;;;;;9.60;2.28;;;;;;;17.33;100.00;100707.94;5013917;28;20065;-56
2023/07/12 03:33:32;;;;;;;8.00;2.03;;;;;;;17.31;100.00;100707.22;5008580;28;20084;-55
2023/07/12 03:36:01;;;;;;;9.15;2.22;;;;;;;17.23;100.00;100713.31;5011031;28;20396;-54
2023/07/12 03:38:31;;;;;;;10.15;2.03;;;;;;;17.26;100.00;100717.50;5011349;28;20045;-55
2023/07/12 03:41:01;;;;;;;8.27;1.92;;;;;;;17.18;100.00;100720.03;5010835;28;20046;-55
2023/07/12 03:43:29;;;;;;;5.43;1.90;;;;;;;17.24;100.00;100730.06;5015760;28;20053;-56
2023/07/12 03:45:58;;;;;;;8.20;1.90;;;;;;;17.04;100.00;100735.47;5010625;28;20041;-55
2023/07/12 03:48:26;;;;;;;8.68;2.55;;;;;;;17.06;100.00;100733.50;5010224;28;20088;-56
2023/07/12 03:50:55;;;;;;;7.03;2.03;;;;;;;17.09;100.00;100744.81;5010706;28;20493;-56
2023/07/12 03:53:24;;;;;;;7.68;2.28;;;;;;;17.10;100.00;100743.81;5010715;28;20069;-55
2023/07/12 03:55:53;;;;;;;9.20;2.30;;;;;;;17.09;100.00;100750.13;5025554;28;20374;-56
2023/07/12 03:58:24;;;;;;;7.60;2.45;;;;;;;17.05;100.00;100745.09;5010839;28;20052;-56
2023/07/12 04:00:52;;;;;;;7.15;2.33;;;;;;;17.08;100.00;100757.25;5010140;28;20050;-55
2023/07/12 04:03:20;;;;;;;6.80;2.58;;;;;;;16.99;100.00;100760.78;5008319;28;20037;-56
2023/07/12 04:05:51;;;;;;;7.80;3.40;;;;;;;16.96;100.00;100775.19;5010223;28;20049;-59
2023/07/12 04:08:21;;;;;;;8.25;3.40;;;;;;;16.85;100.00;100767.34;5010507;28;20065;-58
2023/07/12 04:10:53;;;;;;;10.10;4.10;;;;;;;16.84;100.00;100761.19;5010196;28;20042;-58
2023/07/12 04:13:23;;;;;;;9.85;3.70;;;;;;;16.89;100.00;100758.13;5010392;28;20531;-58
2023/07/12 04:15:54;;;;;;;14.45;4.93;;;;;;;16.94;100.00;100758.56;5010081;28;20046;-58
2023/07/12 04:18:23;;;;;;;10.57;4.15;;;;;;;16.97;100.00;100765.41;5009393;28;20866;-58
2023/07/12 04:20:51;;;;;;;13.63;5.63;;;;;;;16.83;100.00;100764.00;5009509;28;20050;-58
2023/07/12 04:23:19;;;;;;;10.50;5.75;;;;;;;16.89;100.00;100766.97;5009731;28;20732;-57
2023/07/12 04:25:47;;;;;;;13.50;6.10;;;;;;;16.95;100.00;100762.88;5025467;28;20042;-55
2023/07/12 04:28:17;;;;;;;12.60;6.53;;;;;;;16.93;100.00;100759.53;5009992;28;20050;-53
2023/07/12 04:30:45;;;;;;;11.30;6.75;;;;;;;16.93;100.00;100770.16;5010033;28;20069;-56
2023/07/12 04:33:16;;;;;;;12.52;7.10;;;;;;;17.05;100.00;100774.31;5009218;28;20042;-54
2023/07/12 04:35:44;;;;;;;13.75;7.82;;;;;;;17.05;100.00;100771.66;5009233;28;20061;-57
2023/07/12 04:38:13;;;;;;;13.30;8.77;;;;;;;16.99;100.00;100776.72;5009814;28;20049;-56
2023/07/12 04:40:42;;;;;;;12.35;8.70;;;;;;;17.00;100.00;100773.06;5010354;28;20104;-56
2023/07/12 04:43:10;;;;;;;12.80;8.68;;;;;;;16.95;100.00;100770.03;5009768;28;20046;-56
2023/07/12 04:45:41;;;;;;;12.88;8.10;;;;;;;16.85;100.00;100776.16;5009337;28;20050;-56
2023/07/12 04:48:09;;;;;;;17.15;9.60;;;;;;;16.88;100.00;100765.25;5013035;28;20072;-56
2023/07/12 04:50:37;;;;;;;13.73;8.90;;;;;;;16.88;100.00;100775.03;5012628;28;20405;-56
2023/07/12 04:53:05;;;;;;;14.93;9.23;;;;;;;16.94;100.00;100771.00;5010200;28;20054;-57
2023/07/12 04:55:34;;;;;;;20.00;10.68;;;;;;;16.92;100.00;100778.25;5009603;28;20096;-57
2023/07/12 04:58:04;;;;;;;15.25;10.05;;;;;;;16.82;100.00;100778.25;5008534;28;20050;-57
2023/07/12 05:00:33;;;;;;;15.38;10.55;;;;;;;16.93;100.00;100787.91;5009882;28;20053;-57
2023/07/12 05:03:02;;;;;;;19.23;11.65;;;;;;;16.97;100.00;100786.66;5028790;28;20032;-56
2023/07/12 05:05:31;;;;;;;17.15;11.93;;;;;;;16.97;100.00;100782.16;5019095;28;20050;-59
2023/07/12 05:07:59;;;;;;;16.08;11.77;;;;;;;16.92;100.00;100773.81;5009916;28;20813;-60
2023/07/12 05:10:27;;;;;;;17.63;11.80;;;;;;;16.91;100.00;100782.75;5010033;28;20556;-59
2023/07/12 05:12:55;;;;;;;16.33;11.95;;;;;;;16.89;100.00;100796.19;5008282;28;20053;-59
2023/07/12 05:15:24;;;;;;;18.08;12.50;;;;;;;16.99;100.00;100790.00;5025212;28;20053;-59
2023/07/12 05:17:52;;;;;;;18.52;12.43;;;;;;;16.99;100.00;100800.66;5012378;28;20044;-60
2023/07/12 05:20:22;;;;;;;18.92;12.88;;;;;;;17.05;100.00;100795.56;5016215;28;20125;-59
2023/07/12 05:22:50;;;;;;;18.45;12.90;;;;;;;17.11;100.00;100798.63;5012002;28;20052;-59
2023/07/12 05:25:18;;;;;;;17.70;13.20;;;;;;;17.06;100.00;100797.25;5009598;28;20108;-59
2023/07/12 05:27:46;;;;;;;17.23;11.60;;;;;;;17.03;100.00;100802.03;5008657;28;20053;-56
2023/07/12 05:30:15;;;;;;;14.85;12.20;;;;;;;17.20;100.00;100808.41;5007677;28;20073;-56
2023/07/12 05:32:43;;;;;;;14.93;11.77;;;;;;;17.11;100.00;100809.25;5007118;28;20053;-58
2023/07/12 05:35:11;;;;;;;19.05;12.02;;;;;;;17.14;100.00;100814.28;5010082;28;20061;-56
2023/07/12 05:37:41;;;;;;;19.20;12.23;;;;;;;17.11;100.00;100819.88;5009166;28;20065;-57
2023/07/12 05:40:10;;;;;;;18.20;11.77;;;;;;;17.14;100.00;100819.59;5009523;28;20056;-57
2023/07/12 05:42:40;;;;;;;17.48;10.77;;;;;;;17.20;100.00;100821.69;5009568;28;20038;-57
2023/07/12 05:45:12;;;;;;;15.55;10.00;;;;;;;17.17;100.00;100820.16;5012012;28;20076;-57
2023/07/12 05:47:45;;;;;;;18.88;10.20;;;;;;;17.22;100.00;100833.03;5010829;28;20060;-57
2023/07/12 05:50:16;;;;;;;19.35;9.63;;;;;;;17.20;100.00;100829.66;5012256;28;20373;-57
2023/07/12 05:52:46;;;;;;;17.92;9.73;;;;;;;17.21;100.00;100832.19;5021581;28;20487;-57
2023/07/12 05:55:19;;;;;;;13.35;8.38;;;;;;;17.25;100.00;100832.75;5013978;28;20057;-57
2023/07/12 05:57:48;;;;;;;13.40;7.80;;;;;;;17.23;100.00;100835.53;5026645;28;20080;-58
2023/07/12 06:00:18;;;;;;;15.07;7.93;;;;;;;17.32;100.00;100831.16;5013853;28;20056;-58
2023/07/12 06:02:46;;;;;;;13.00;7.50;;;;;;;17.45;100.00;100833.53;5010818;28;20125;-57
2023/07/12 06:05:14;;;;;;;13.10;7.75;;;;;;;17.58;100.00;100844.66;5022208;28;20041;-58
2023/07/12 06:07:43;;;;;;;11.13;7.07;;;;;;;17.62;100.00;100849.69;5043359;28;20061;-58
2023/07/12 06:10:15;;;;;;;11.23;6.10;;;;;;;17.41;100.00;100848.09;5015725;28;20108;-56
2023/07/12 06:12:43;;;;;;;11.68;6.57;;;;;;;17.43;100.00;100850.59;5016189;28;20052;-56
2023/07/12 06:15:14;;;;;;;16.20;6.63;;;;;;;17.53;100.00;100846.06;5015427;28;20120;-56
2023/07/12 06:17:44;;;;;;;12.35;5.78;;;;;;;17.53;100.00;100841.63;5008234;28;20064;-57
2023/07/12 06:20:12;;;;;;;13.07;6.43;;;;;;;17.52;100.00;100845.25;5008526;28;20073;-57
2023/07/12 06:22:40;;;;;;;13.68;6.72;;;;;;;17.65;100.00;100855.53;5010341;28;20046;-57
2023/07/12 06:25:10;;;;;;;13.20;6.50;;;;;;;17.78;100.00;100841.06;5017237;28;20049;-57
2023/07/12 06:27:39;;;;;;;12.02;6.22;;;;;;;17.87;100.00;100848.16;5010080;28;20442;-57
2023/07/12 06:30:08;;;;;;;13.45;6.32;;;;;;;17.82;100.00;100848.63;5017585;28;20049;-57
2023/07/12 06:32:38;;;;;;;10.15;5.85;;;;;;;17.87;100.00;100848.16;5023526;28;20056;-57
2023/07/12 06:35:06;;;;;;;11.10;6.13;;;;;;;18.05;100.00;100848.25;5023360;28;20056;-59
2023/07/12 06:37:35;;;;;;;12.07;5.88;;;;;;;18.17;100.00;100848.88;5015767;28;20090;-60
2023/07/12 06:40:05;;;;;;;12.77;6.00;;;;;;;18.17;100.00;100864.84;5019135;28;20045;-58
2023/07/12 06:42:33;;;;;;;11.10;5.53;;;;;;;18.19;100.00;100863.72;5021336;28;20053;-58
2023/07/12 06:45:03;;;;;;;14.35;5.68;;;;;;;18.27;100.00;100865.66;5018576;28;20033;-59
2023/07/12 06:47:32;;;;;;;13.02;5.43;;;;;;;18.30;100.00;100875.97;5015956;28;20049;-58
2023/07/12 06:50:00;;;;;;;12.27;5.10;;;;;;;18.13;100.00;100874.13;5015529;28;20046;-58
2023/07/12 06:52:29;;;;;;;10.82;4.68;;;;;;;18.23;100.00;100888.22;5017567;28;20045;-58
2023/07/12 06:54:57;;;;;;;12.77;5.03;;;;;;;18.29;100.00;100882.28;5017411;28;20042;-57
2023/07/12 06:57:25;;;;;;;11.57;5.22;;;;;;;18.33;100.00;100885.50;5017868;28;20133;-57
2023/07/12 06:59:53;;;;;;;12.32;5.30;;;;;;;18.31;100.00;100895.44;5019213;28;20050;-57
2023/07/12 07:02:23;;;;;;;10.60;5.00;;;;;;;18.31;100.00;100895.44;5020985;28;20042;-57
2023/07/12 07:04:51;;;;;;;10.50;4.90;;;;;;;18.35;100.00;100902.13;5021695;28;20131;-58
2023/07/12 07:07:19;;;;;;;10.52;4.82;;;;;;;18.38;100.00;100894.72;5016775;28;20511;-58
2023/07/12 07:09:47;;;;;;;10.77;5.15;;;;;;;18.53;100.00;100902.19;5021981;28;20056;-57
2023/07/12 07:12:16;;;;;;;10.07;4.82;;;;;;;18.55;100.00;100897.53;5022084;28;20115;-57
2023/07/12 07:14:47;;;;;;;13.43;5.45;;;;;;;18.71;100.00;100900.34;5015790;28;20076;-57
2023/07/12 07:17:15;;;;;;;11.95;5.53;;;;;;;18.68;100.00;100895.34;5014684;28;20076;-57
2023/07/12 07:19:44;;;;;;;11.70;5.05;;;;;;;18.72;100.00;100887.91;5011501;28;20583;-55
2023/07/12 07:22:13;;;;;;;11.25;5.70;;;;;;;18.75;100.00;100893.72;5015181;28;20052;-57
2023/07/12 07:24:41;;;;;;;11.82;5.60;;;;;;;18.72;100.00;100899.38;5027824;28;20041;-57
2023/07/12 07:27:09;;;;;;;13.25;5.55;;;;;;;18.86;100.00;100895.34;5012865;28;20424;-58
2023/07/12 07:29:38;;;;;;;11.27;5.20;;;;;;;18.91;100.00;100894.94;5011480;28;20053;-58
2023/07/12 07:32:06;;;;;;;11.77;5.90;;;;;;;18.93;100.00;100898.25;5017574;28;20060;-58
2023/07/12 07:34:35;;;;;;;10.68;5.72;;;;;;;19.05;100.00;100905.03;5017995;28;20084;-57
2023/07/12 07:37:05;;;;;;;12.10;5.20;;;;;;;19.18;100.00;100917.97;5029521;28;20408;-57
2023/07/12 07:39:33;;;;;;;11.70;4.75;;;;;;;19.36;100.00;100920.59;5023942;28;20049;-58
2023/07/12 07:42:02;;;;;;;13.88;4.93;;;;;;;19.36;100.00;100919.75;5030705;28;20697;-58
2023/07/12 07:44:30;;;;;;;9.57;5.03;;;;;;;19.42;100.00;100930.63;5026751;28;20121;-58
2023/07/12 07:46:58;;;;;;;11.85;4.70;;;;;;;19.39;100.00;100925.59;5009846;28;20046;-58
2023/07/12 07:49:27;;;;;;;10.15;4.40;;;;;;;19.36;100.00;100933.94;5010286;28;20053;-58
2023/07/12 07:51:55;;;;;;;12.18;4.80;;;;;;;19.47;100.00;100926.66;5017850;28;20080;-57
2023/07/12 07:54:24;;;;;;;13.13;4.78;;;;;;;19.46;100.00;100931.16;5026004;28;20040;-57
2023/07/12 07:56:54;;;;;;;11.60;4.35;;;;;;;19.30;100.00;100936.38;5023292;28;20041;-57
2023/07/12 07:59:22;;;;;;;12.20;4.57;;;;;;;19.47;100.00;100940.84;5022177;28;20685;-58
2023/07/12 08:01:50;;;;;;;10.32;4.13;;;;;;;19.50;100.00;100943.19;5010936;28;20050;-58
2023/07/12 08:04:19;;;;;;;13.05;4.57;;;;;;;19.55;100.00;100948.03;5021229;28;20038;-58
2023/07/12 08:06:47;;;;;;;12.18;4.32;;;;;;;19.55;100.00;100946.22;5010971;28;20124;-58
2023/07/12 08:09:15;;;;;;;9.55;4.20;;;;;;;19.66;100.00;100949.63;5012956;28;20057;-57
2023/07/12 08:11:45;;;;;;;11.18;4.13;;;;;;;19.84;100.00;100949.59;5014161;28;20145;-58
2023/07/12 08:14:14;;;;;;;12.43;4.50;;;;;;;19.84;100.00;100952.28;5014049;28;20421;-58
2023/07/12 08:16:42;;;;;;;12.95;4.32;;;;;;;19.90;100.00;100954.28;5013079;28;20057;-57
2023/07/12 08:19:11;;;;;;;11.68;4.15;;;;;;;19.76;100.00;100961.03;5009601;28;20058;-58
2023/07/12 08:21:46;;;;;;;11.80;4.65;;;;;;;19.78;100.00;100961.69;5012370;28;20124;-57
2023/07/12 08:24:15;;;;;;;12.52;4.40;;;;;;;19.73;100.00;100958.69;5010950;28;20100;-58
2023/07/12 08:26:43;;;;;;;10.13;4.32;;;;;;;19.69;100.00;100966.16;5010055;28;20050;-58
2023/07/12 08:29:23;;;;;;;10.10;4.57;;;;;;;19.79;100.00;100968.72;5014919;28;20060;-58
2023/07/12 08:31:51;;;;;;;11.68;4.25;;;;;;;19.93;100.00;100965.50;5018808;28;20153;-58
2023/07/12 08:34:22;;;;;;;12.90;5.20;;;;;;;20.03;100.00;100981.41;5023405;28;20143;-58
2023/07/12 08:36:53;;;;;;;10.98;4.50;;;;;;;20.02;100.00;100973.56;5018694;28;20502;-58
2023/07/12 08:39:21;;;;;;;14.30;4.93;;;;;;;20.14;100.00;100977.63;5023348;28;20513;-58
2023/07/12 08:41:49;;;;;;;13.23;4.53;;;;;;;20.23;100.00;100981.16;5020505;28;20055;-58
2023/07/12 08:44:17;;;;;;;10.93;4.10;;;;;;;20.30;100.00;100971.53;5018118;28;20389;-57
2023/07/12 08:46:52;;;;;;;10.98;4.22;;;;;;;20.56;100.00;100976.78;5024509;28;20045;-59
2023/07/12 08:49:21;;;;;;;13.63;4.35;;;;;;;20.87;100.00;100972.69;5022131;28;20108;-58
2023/07/12 08:51:49;;;;;;;11.75;4.53;;;;;;;20.97;100.00;100962.69;5012302;28;20054;-58
2023/07/12 08:54:23;;;;;;;13.45;4.20;;;;;;;21.23;100.00;100964.38;5023833;28;20065;-58
2023/07/12 08:56:55;;;;;;;11.45;4.20;;;;;;;21.31;100.00;100971.56;5025816;28;20060;-58
2023/07/12 08:59:23;;;;;;;;;;;;;;;21.40;100.00;100970.56;5008007;28;20104;-59
2023/07/12 09:01:58;;;;;;;13.27;4.13;;;;;;;21.49;100.00;100968.69;5012508;28;19921;-58
2023/07/12 09:04:31;;;;;;;10.98;3.88;;;;;;;21.54;100.00;100975.28;5014735;28;20045;-59
2023/07/12 09:07:04;;;;;;;9.70;3.83;;;;;;;21.89;100.00;100973.19;5010761;28;20497;-58
2023/07/12 09:09:37;;;;;;;11.93;3.50;;;;;;;21.97;100.00;100974.19;5010549;28;20551;-58
2023/07/12 09:12:23;;;;;;;9.98;3.97;;;;;;;22.39;100.00;100968.53;5014130;28;20050;-58
2023/07/12 09:14:54;;;;;;;10.70;3.63;;;;;;;22.53;100.00;100968.78;5009401;28;20072;-59
2023/07/12 09:17:25;;;;;;;12.32;3.90;;;;;;;22.65;100.00;100970.06;5010708;28;20042;-59
2023/07/12 09:19:54;;;;;;;10.18;4.15;;;;;;;22.62;100.00;100968.56;5008923;28;20045;-59
2023/07/12 09:22:23;;;;;;;11.43;3.67;;;;;;;22.90;100.00;100972.59;5011289;28;20385;-59
2023/07/12 09:24:54;;;;;;;9.60;3.65;;;;;;;23.04;100.00;100962.94;5017929;28;20046;-59
2023/07/12 09:27:25;;;;;;;10.65;3.40;;;;;;;23.26;100.00;100964.81;5009524;28;20042;-58
2023/07/12 09:30:01;;;;;;;9.32;3.30;;;;;;;23.36;100.00;100963.72;5020489;28;20096;-58
2023/07/12 09:32:33;;;;;;;12.18;3.03;;;;;;;23.30;100.00;100959.88;5006290;28;21572;-59
2023/07/12 09:35:03;;;;;;;10.75;3.28;;;;;;;23.32;100.00;100957.88;5010135;28;20038;-58
2023/07/12 09:37:37;;;;;;;9.77;3.03;;;;;;;23.60;100.00;100957.25;5019276;28;20045;-57
2023/07/12 09:40:17;;;;;;;10.07;2.72;;;;;;;23.80;100.00;100962.94;5007661;28;20101;-58
2023/07/12 09:42:49;;;;;;;9.52;2.90;;;;;;;23.81;100.00;100967.28;5008734;28;20123;-58
2023/07/12 09:45:17;;;;;;;6.85;2.20;;;;;;;24.12;100.00;100960.94;5010926;28;20100;-57
2023/07/12 09:48:00;;;;;;;11.50;2.83;;;;;;;24.10;100.00;100957.59;5011563;28;20060;-58
2023/07/12 09:50:37;;;;;;;9.50;2.50;;;;;;;24.34;100.00;100956.47;5008672;28;20107;-58
2023/07/12 09:53:14;;;;;;;9.13;2.55;;;;;;;24.39;100.00;100972.84;5014749;28;20459;-58
2023/07/12 09:55:51;;;;;;;10.98;2.70;;;;;;;24.82;100.00;100979.34;5023582;28;20033;-57
2023/07/12 09:58:29;;;;;;;7.82;2.40;;;;;;;25.16;100.00;100978.66;5017575;28;20053;-56
2023/07/12 10:01:03;;;;;;;11.93;2.30;;;;;;;25.26;100.00;100965.69;5015035;28;20121;-59
2023/07/12 10:03:37;;;;;;;9.23;2.78;;;;;;;25.24;100.00;100962.38;5012048;28;20037;-58
2023/07/12 10:06:13;;;;;;;10.23;2.38;;;;;;;25.55;100.00;100954.97;5017832;28;20058;-58
2023/07/12 10:08:47;;;;;;;9.00;2.35;;;;;;;25.38;100.00;100957.13;5010348;28;20046;-57
2023/07/12 10:11:23;;;;;;;10.80;2.55;;;;;;;25.49;100.00;100959.28;5026541;28;20064;-58
2023/07/12 10:13:58;;;;;;;9.25;2.63;;;;;;;25.41;100.00;100967.50;5030105;28;20099;-59
2023/07/12 10:16:32;;;;;;;9.43;2.50;;;;;;;25.72;100.00;100953.63;5025322;28;20469;-59
2023/07/12 10:19:06;;;;;;;9.18;2.70;;;;;;;25.39;100.00;100958.81;5028128;28;20103;-60
2023/07/12 10:21:36;;;;;;;8.68;2.72;;;;;;;25.77;100.00;100972.72;5026615;28;21229;-59
2023/07/12 10:24:06;;;;;;;11.07;2.35;;;;;;;25.90;100.00;100973.84;5027531;28;20503;-58
2023/07/12 10:26:36;;;;;;;8.55;2.47;;;;;;;26.16;100.00;100962.38;5009276;28;20037;-59
2023/07/12 10:29:09;;;;;;;8.02;2.30;;;;;;;26.07;100.00;100968.97;5008560;28;20964;-59
2023/07/12 10:31:44;;;;;;;7.70;2.15;;;;;;;25.95;100.00;100968.69;5026298;28;20536;-59
2023/07/12 10:34:35;;;;;;;8.95;2.25;;;;;;;26.21;100.00;100959.94;5027567;28;20042;-59
2023/07/12 10:37:11;;;;;;;6.63;2.17;;;;;;;26.22;100.00;100968.84;5015139;28;20053;-59
2023/07/12 10:39:40;;;;;;;9.95;2.40;;;;;;;26.15;100.00;100969.66;5020182;28;20493;-58
2023/07/12 10:42:16;;;;;;;;;;;;;;;26.31;100.00;100967.63;5029496;28;20355;-59
2023/07/12 10:44:51;;;;;;;8.05;2.00;;;;;;;26.19;100.00;100966.56;5031275;28;19932;-59
2023/07/12 10:47:21;;;;;;;8.38;2.28;;;;;;;25.83;100.00;100981.06;4997587;28;20048;-60
2023/07/12 10:50:01;;;;;;;9.35;2.65;;;;;;;25.92;100.00;100979.84;5012638;28;20045;-60
2023/07/12 10:52:31;;;;;;;9.25;2.25;;;;;;;26.08;100.00;100978.72;5012416;28;20132;-60
2023/07/12 10:55:22;;;;;;;8.70;2.28;;;;;;;26.10;100.00;100982.88;5029108;28;20102;-59
2023/07/12 10:57:52;;;;;;;7.60;2.22;;;;;;;25.72;100.00;100985.13;5031122;28;20559;-59
2023/07/12 11:00:29;;;;;;;8.85;2.40;;;;;;;25.83;100.00;100991.81;5031192;28;20064;-61
2023/07/12 11:03:17;;;;;;;8.05;2.53;;;;;;;25.14;100.00;100999.53;5029528;28;20079;-59
2023/07/12 11:05:58;;;;;;;9.07;2.53;;;;;;;24.50;100.00;101011.84;4996713;28;20498;-58
2023/07/12 11:08:37;;;;;;;10.63;2.80;;;;;;;23.95;100.00;101003.25;5011367;28;20053;-58
2023/07/12 11:11:34;;;;;;;11.43;2.80;;;;;;;23.85;100.00;100995.44;5011390;28;20050;-59
2023/07/12 11:14:14;;;;;;;10.98;2.50;;;;;;;23.70;100.00;100992.75;5017443;28;20049;-59
2023/07/12 11:16:52;;;;;;;7.35;2.50;;;;;;;23.97;100.00;101001.22;5030827;28;20049;-58
2023/07/12 11:19:53;;;;;;;7.35;2.50;;;;;;;23.99;100.00;101004.56;5022489;28;20049;-60
2023/07/12 11:22:43;;;;;;;9.15;2.65;;;;;;;24.09;100.00;101007.81;5005770;28;20149;-60
2023/07/12 11:25:25;;;;;;;;;;;;;;;24.04;100.00;101006.69;5027267;28;20041;-60
2023/07/12 11:28:00;;;;;;;9.68;2.60;;;;;;;24.04;100.00;101012.06;5019604;28;19925;-59
2023/07/12 11:30:44;;;;;;;8.95;2.60;;;;;;;23.93;100.00;101008.00;5024624;28;20052;-60